sensor_id;sensor_type;location;lat;lon;timestamp;P1;durP1;ratioP1;P2;durP2;ratioP2
6306;SDS011;3186;54.062;9.962;2023-04-03T00:01:13;5.53;;;2.73;;
6306;SDS011;3186;54.062;9.962;2023-04-03T00:03:39;4.77;;;2.33;;
6306;SDS011;3186;54.062;9.962;2023-04-03T00:06:06;7.17;;;2.10;;
6306;SDS011;3186;54.062;9.962;2023-04-03T00:08:34;6.07;;;2.37;;
6306;SDS011;3186;54.062;9.962;2023-04-03T00:11:00;5.93;;;2.47;;
6306;SDS011;3186;54.062;9.962;2023-04-03T00:13:26;3.93;;;2.20;;
6306;SDS011;3186;54.062;9.962;2023-04-03T00:15:52;7.20;;;2.20;;
6306;SDS011;3186;54.062;9.962;2023-04-03T00:18:19;4.77;;;2.50;;
6306;SDS011;3186;54.062;9.962;2023-04-03T00:20:45;4.13;;;2.07;;
6306;SDS011;3186;54.062;9.962;2023-04-03T00:23:11;6.30;;;2.60;;
6306;SDS011;3186;54.062;9.962;2023-04-03T00:25:36;6.40;;;2.47;;
6306;SDS011;3186;54.062;9.962;2023-04-03T00:28:03;5.77;;;2.33;;
6306;SDS011;3186;54.062;9.962;2023-04-03T00:30:30;4.30;;;2.50;;
6306;SDS011;3186;54.062;9.962;2023-04-03T00:32:56;4.30;;;2.40;;
6306;SDS011;3186;54.062;9.962;2023-04-03T00:35:22;5.10;;;2.30;;
6306;SDS011;3186;54.062;9.962;2023-04-03T00:37:52;3.73;;;2.13;;
6306;SDS011;3186;54.062;9.962;2023-04-03T00:40:20;7.00;;;2.87;;
6306;SDS011;3186;54.062;9.962;2023-04-03T00:42:47;5.60;;;2.90;;
6306;SDS011;3186;54.062;9.962;2023-04-03T00:45:27;7.27;;;3.20;;
6306;SDS011;3186;54.062;9.962;2023-04-03T00:48:00;6.60;;;2.53;;
6306;SDS011;3186;54.062;9.962;2023-04-03T00:50:30;6.03;;;2.60;;
6306;SDS011;3186;54.062;9.962;2023-04-03T00:52:57;4.47;;;2.97;;
6306;SDS011;3186;54.062;9.962;2023-04-03T00:55:24;4.90;;;2.23;;
6306;SDS011;3186;54.062;9.962;2023-04-03T00:57:50;3.93;;;2.90;;
6306;SDS011;3186;54.062;9.962;2023-04-03T01:00:19;5.60;;;2.90;;
6306;SDS011;3186;54.062;9.962;2023-04-03T01:02:45;4.43;;;2.60;;
6306;SDS011;3186;54.062;9.962;2023-04-03T01:05:13;5.63;;;2.80;;
6306;SDS011;3186;54.062;9.962;2023-04-03T01:07:44;3.67;;;2.60;;
6306;SDS011;3186;54.062;9.962;2023-04-03T01:10:12;8.53;;;2.87;;
6306;SDS011;3186;54.062;9.962;2023-04-03T01:12:41;5.20;;;2.60;;
6306;SDS011;3186;54.062;9.962;2023-04-03T01:15:10;6.37;;;2.90;;
6306;SDS011;3186;54.062;9.962;2023-04-03T01:17:43;5.53;;;2.40;;
6306;SDS011;3186;54.062;9.962;2023-04-03T01:25:43;4.33;;;2.63;;
6306;SDS011;3186;54.062;9.962;2023-04-03T01:28:18;3.07;;;2.20;;
6306;SDS011;3186;54.062;9.962;2023-04-03T01:30:58;4.70;;;2.53;;
6306;SDS011;3186;54.062;9.962;2023-04-03T01:33:39;5.60;;;2.53;;
6306;SDS011;3186;54.062;9.962;2023-04-03T01:36:06;5.20;;;2.00;;
6306;SDS011;3186;54.062;9.962;2023-04-03T01:38:33;5.83;;;2.30;;
6306;SDS011;3186;54.062;9.962;2023-04-03T01:40:58;3.87;;;2.37;;
6306;SDS011;3186;54.062;9.962;2023-04-03T01:43:25;4.30;;;2.40;;
6306;SDS011;3186;54.062;9.962;2023-04-03T01:45:50;5.07;;;2.50;;
6306;SDS011;3186;54.062;9.962;2023-04-03T01:48:18;5.97;;;2.20;;
6306;SDS011;3186;54.062;9.962;2023-04-03T01:50:43;5.70;;;1.93;;
6306;SDS011;3186;54.062;9.962;2023-04-03T01:53:09;3.70;;;2.10;;
6306;SDS011;3186;54.062;9.962;2023-04-03T01:55:35;4.00;;;2.30;;
6306;SDS011;3186;54.062;9.962;2023-04-03T01:58:01;3.47;;;2.17;;
6306;SDS011;3186;54.062;9.962;2023-04-03T02:00:27;6.17;;;2.50;;
6306;SDS011;3186;54.062;9.962;2023-04-03T02:02:53;5.73;;;1.90;;
6306;SDS011;3186;54.062;9.962;2023-04-03T02:05:18;3.03;;;1.80;;
6306;SDS011;3186;54.062;9.962;2023-04-03T02:07:44;6.17;;;2.30;;
6306;SDS011;3186;54.062;9.962;2023-04-03T02:10:12;6.87;;;2.43;;
6306;SDS011;3186;54.062;9.962;2023-04-03T02:12:38;3.43;;;1.83;;
6306;SDS011;3186;54.062;9.962;2023-04-03T02:15:04;3.00;;;1.90;;
6306;SDS011;3186;54.062;9.962;2023-04-03T02:17:30;4.97;;;2.00;;
6306;SDS011;3186;54.062;9.962;2023-04-03T02:19:56;3.03;;;1.87;;
6306;SDS011;3186;54.062;9.962;2023-04-03T02:22:22;2.67;;;1.93;;
6306;SDS011;3186;54.062;9.962;2023-04-03T02:24:50;4.13;;;2.10;;
6306;SDS011;3186;54.062;9.962;2023-04-03T02:27:17;3.30;;;2.00;;
6306;SDS011;3186;54.062;9.962;2023-04-03T02:29:42;3.77;;;2.23;;
6306;SDS011;3186;54.062;9.962;2023-04-03T02:32:08;5.90;;;2.50;;
6306;SDS011;3186;54.062;9.962;2023-04-03T02:34:35;2.70;;;2.00;;
6306;SDS011;3186;54.062;9.962;2023-04-03T02:37:01;5.23;;;2.00;;
6306;SDS011;3186;54.062;9.962;2023-04-03T02:39:27;5.00;;;2.30;;
6306;SDS011;3186;54.062;9.962;2023-04-03T02:41:54;4.50;;;2.40;;
6306;SDS011;3186;54.062;9.962;2023-04-03T02:44:23;3.50;;;2.23;;
6306;SDS011;3186;54.062;9.962;2023-04-03T02:46:50;6.70;;;2.37;;
6306;SDS011;3186;54.062;9.962;2023-04-03T02:49:16;2.87;;;2.10;;
6306;SDS011;3186;54.062;9.962;2023-04-03T02:51:42;4.73;;;2.13;;
6306;SDS011;3186;54.062;9.962;2023-04-03T02:54:08;4.73;;;2.50;;
6306;SDS011;3186;54.062;9.962;2023-04-03T02:56:37;3.27;;;2.27;;
6306;SDS011;3186;54.062;9.962;2023-04-03T02:59:03;5.20;;;2.63;;
6306;SDS011;3186;54.062;9.962;2023-04-03T03:01:31;3.90;;;2.47;;
6306;SDS011;3186;54.062;9.962;2023-04-03T03:03:58;4.03;;;2.37;;
6306;SDS011;3186;54.062;9.962;2023-04-03T03:06:25;5.60;;;2.47;;
6306;SDS011;3186;54.062;9.962;2023-04-03T03:08:51;5.67;;;2.60;;
6306;SDS011;3186;54.062;9.962;2023-04-03T03:11:17;3.20;;;2.10;;
6306;SDS011;3186;54.062;9.962;2023-04-03T03:13:43;6.30;;;2.80;;
6306;SDS011;3186;54.062;9.962;2023-04-03T03:16:09;4.83;;;2.30;;
6306;SDS011;3186;54.062;9.962;2023-04-03T03:18:35;4.93;;;2.63;;
6306;SDS011;3186;54.062;9.962;2023-04-03T03:21:01;4.67;;;2.60;;
6306;SDS011;3186;54.062;9.962;2023-04-03T03:23:29;5.13;;;2.50;;
6306;SDS011;3186;54.062;9.962;2023-04-03T03:26:01;6.63;;;2.30;;
6306;SDS011;3186;54.062;9.962;2023-04-03T03:28:30;6.13;;;2.40;;
6306;SDS011;3186;54.062;9.962;2023-04-03T03:30:56;7.20;;;2.63;;
6306;SDS011;3186;54.062;9.962;2023-04-03T03:33:23;5.30;;;2.63;;
6306;SDS011;3186;54.062;9.962;2023-04-03T03:35:49;4.70;;;2.27;;
6306;SDS011;3186;54.062;9.962;2023-04-03T03:38:15;5.13;;;2.10;;
6306;SDS011;3186;54.062;9.962;2023-04-03T03:40:40;7.10;;;2.10;;
6306;SDS011;3186;54.062;9.962;2023-04-03T03:43:07;4.30;;;2.10;;
6306;SDS011;3186;54.062;9.962;2023-04-03T03:45:33;4.17;;;2.20;;
6306;SDS011;3186;54.062;9.962;2023-04-03T03:48:00;9.67;;;2.73;;
6306;SDS011;3186;54.062;9.962;2023-04-03T03:50:26;4.83;;;2.30;;
6306;SDS011;3186;54.062;9.962;2023-04-03T03:52:52;8.80;;;2.40;;
6306;SDS011;3186;54.062;9.962;2023-04-03T03:55:18;6.30;;;2.80;;
6306;SDS011;3186;54.062;9.962;2023-04-03T03:57:48;4.10;;;2.33;;
6306;SDS011;3186;54.062;9.962;2023-04-03T04:00:14;5.20;;;2.50;;
6306;SDS011;3186;54.062;9.962;2023-04-03T04:02:41;5.40;;;2.20;;
6306;SDS011;3186;54.062;9.962;2023-04-03T04:05:11;5.20;;;2.20;;
6306;SDS011;3186;54.062;9.962;2023-04-03T04:07:37;4.87;;;2.33;;
6306;SDS011;3186;54.062;9.962;2023-04-03T04:10:03;3.63;;;2.20;;
6306;SDS011;3186;54.062;9.962;2023-04-03T04:12:30;6.90;;;2.20;;
6306;SDS011;3186;54.062;9.962;2023-04-03T04:14:56;4.13;;;2.10;;
6306;SDS011;3186;54.062;9.962;2023-04-03T04:17:22;7.03;;;2.70;;
6306;SDS011;3186;54.062;9.962;2023-04-03T04:19:49;2.80;;;2.00;;
6306;SDS011;3186;54.062;9.962;2023-04-03T04:22:15;4.63;;;2.60;;
6306;SDS011;3186;54.062;9.962;2023-04-03T04:24:42;6.17;;;2.63;;
6306;SDS011;3186;54.062;9.962;2023-04-03T04:27:08;3.10;;;2.20;;
6306;SDS011;3186;54.062;9.962;2023-04-03T04:29:34;5.00;;;2.23;;
6306;SDS011;3186;54.062;9.962;2023-04-03T04:32:03;3.43;;;2.70;;
6306;SDS011;3186;54.062;9.962;2023-04-03T04:34:29;4.83;;;2.60;;
6306;SDS011;3186;54.062;9.962;2023-04-03T04:36:56;7.47;;;3.00;;
6306;SDS011;3186;54.062;9.962;2023-04-03T04:39:22;6.30;;;2.50;;
6306;SDS011;3186;54.062;9.962;2023-04-03T04:41:48;5.63;;;2.57;;
6306;SDS011;3186;54.062;9.962;2023-04-03T04:44:14;5.50;;;2.53;;
6306;SDS011;3186;54.062;9.962;2023-04-03T04:46:40;4.37;;;2.60;;
6306;SDS011;3186;54.062;9.962;2023-04-03T04:49:07;5.53;;;3.07;;
6306;SDS011;3186;54.062;9.962;2023-04-03T04:51:33;4.43;;;3.07;;
6306;SDS011;3186;54.062;9.962;2023-04-03T04:53:59;7.80;;;3.87;;
6306;SDS011;3186;54.062;9.962;2023-04-03T04:56:25;16.07;;;4.80;;
6306;SDS011;3186;54.062;9.962;2023-04-03T04:58:53;7.03;;;3.90;;
6306;SDS011;3186;54.062;9.962;2023-04-03T05:01:20;9.73;;;4.33;;
6306;SDS011;3186;54.062;9.962;2023-04-03T05:03:54;8.47;;;4.23;;
6306;SDS011;3186;54.062;9.962;2023-04-03T05:06:21;7.03;;;3.73;;
6306;SDS011;3186;54.062;9.962;2023-04-03T05:08:47;8.67;;;4.13;;
6306;SDS011;3186;54.062;9.962;2023-04-03T05:11:13;8.07;;;3.93;;
6306;SDS011;3186;54.062;9.962;2023-04-03T05:13:40;7.93;;;4.23;;
6306;SDS011;3186;54.062;9.962;2023-04-03T05:16:06;10.40;;;4.33;;
6306;SDS011;3186;54.062;9.962;2023-04-03T05:18:33;7.43;;;3.73;;
6306;SDS011;3186;54.062;9.962;2023-04-03T05:21:04;6.03;;;3.47;;
6306;SDS011;3186;54.062;9.962;2023-04-03T05:23:30;6.03;;;3.53;;
6306;SDS011;3186;54.062;9.962;2023-04-03T05:25:58;6.23;;;3.77;;
6306;SDS011;3186;54.062;9.962;2023-04-03T05:28:26;5.77;;;3.53;;
6306;SDS011;3186;54.062;9.962;2023-04-03T05:30:56;8.27;;;3.70;;
6306;SDS011;3186;54.062;9.962;2023-04-03T05:33:26;7.47;;;3.70;;
6306;SDS011;3186;54.062;9.962;2023-04-03T05:35:56;6.07;;;3.40;;
6306;SDS011;3186;54.062;9.962;2023-04-03T05:38:40;5.13;;;3.10;;
6306;SDS011;3186;54.062;9.962;2023-04-03T05:41:06;7.20;;;3.50;;
6306;SDS011;3186;54.062;9.962;2023-04-03T05:43:32;6.63;;;3.50;;
6306;SDS011;3186;54.062;9.962;2023-04-03T05:46:00;7.63;;;3.80;;
6306;SDS011;3186;54.062;9.962;2023-04-03T05:48:28;6.03;;;3.30;;
6306;SDS011;3186;54.062;9.962;2023-04-03T05:50:54;6.80;;;3.23;;
6306;SDS011;3186;54.062;9.962;2023-04-03T05:53:24;6.67;;;3.63;;
6306;SDS011;3186;54.062;9.962;2023-04-03T05:55:53;9.97;;;4.37;;
6306;SDS011;3186;54.062;9.962;2023-04-03T05:58:20;9.13;;;3.73;;
6306;SDS011;3186;54.062;9.962;2023-04-03T06:00:49;5.17;;;3.27;;
6306;SDS011;3186;54.062;9.962;2023-04-03T06:03:15;6.73;;;3.40;;
6306;SDS011;3186;54.062;9.962;2023-04-03T06:05:42;7.23;;;3.70;;
6306;SDS011;3186;54.062;9.962;2023-04-03T06:08:10;10.43;;;3.90;;
6306;SDS011;3186;54.062;9.962;2023-04-03T06:10:35;6.23;;;3.50;;
6306;SDS011;3186;54.062;9.962;2023-04-03T06:13:02;7.20;;;3.83;;
6306;SDS011;3186;54.062;9.962;2023-04-03T06:15:28;9.20;;;4.33;;
6306;SDS011;3186;54.062;9.962;2023-04-03T06:17:54;7.93;;;4.63;;
6306;SDS011;3186;54.062;9.962;2023-04-03T06:20:20;9.23;;;4.30;;
6306;SDS011;3186;54.062;9.962;2023-04-03T06:22:47;9.70;;;4.40;;
6306;SDS011;3186;54.062;9.962;2023-04-03T06:25:14;7.43;;;4.67;;
6306;SDS011;3186;54.062;9.962;2023-04-03T06:27:42;10.00;;;4.57;;
6306;SDS011;3186;54.062;9.962;2023-04-03T06:30:08;7.63;;;4.70;;
6306;SDS011;3186;54.062;9.962;2023-04-03T06:32:34;6.53;;;4.27;;
6306;SDS011;3186;54.062;9.962;2023-04-03T06:35:00;7.97;;;4.63;;
6306;SDS011;3186;54.062;9.962;2023-04-03T06:37:26;11.40;;;4.40;;
6306;SDS011;3186;54.062;9.962;2023-04-03T06:39:54;6.90;;;4.63;;
6306;SDS011;3186;54.062;9.962;2023-04-03T06:42:20;9.90;;;4.80;;
6306;SDS011;3186;54.062;9.962;2023-04-03T06:44:53;7.47;;;4.47;;
6306;SDS011;3186;54.062;9.962;2023-04-03T06:47:19;10.03;;;4.33;;
6306;SDS011;3186;54.062;9.962;2023-04-03T06:49:45;7.07;;;4.13;;
6306;SDS011;3186;54.062;9.962;2023-04-03T06:52:11;9.60;;;4.37;;
6306;SDS011;3186;54.062;9.962;2023-04-03T06:54:37;8.00;;;4.33;;
6306;SDS011;3186;54.062;9.962;2023-04-03T06:57:03;9.67;;;3.80;;
6306;SDS011;3186;54.062;9.962;2023-04-03T06:59:29;10.57;;;4.37;;
6306;SDS011;3186;54.062;9.962;2023-04-03T07:01:55;5.13;;;2.87;;
6306;SDS011;3186;54.062;9.962;2023-04-03T07:04:23;7.57;;;3.00;;
6306;SDS011;3186;54.062;9.962;2023-04-03T07:06:49;4.77;;;2.77;;
6306;SDS011;3186;54.062;9.962;2023-04-03T07:09:15;9.90;;;2.77;;
6306;SDS011;3186;54.062;9.962;2023-04-03T07:11:41;7.90;;;2.40;;
6306;SDS011;3186;54.062;9.962;2023-04-03T07:14:07;5.00;;;2.37;;
6306;SDS011;3186;54.062;9.962;2023-04-03T07:16:33;6.53;;;3.27;;
6306;SDS011;3186;54.062;9.962;2023-04-03T07:19:00;7.03;;;2.63;;
6306;SDS011;3186;54.062;9.962;2023-04-03T07:21:26;5.83;;;2.43;;
6306;SDS011;3186;54.062;9.962;2023-04-03T07:23:53;7.10;;;2.73;;
6306;SDS011;3186;54.062;9.962;2023-04-03T07:26:19;10.63;;;3.00;;
6306;SDS011;3186;54.062;9.962;2023-04-03T07:28:46;8.93;;;2.47;;
6306;SDS011;3186;54.062;9.962;2023-04-03T07:31:14;5.20;;;2.10;;
6306;SDS011;3186;54.062;9.962;2023-04-03T07:33:41;6.60;;;2.33;;
6306;SDS011;3186;54.062;9.962;2023-04-03T07:36:08;6.63;;;2.13;;
6306;SDS011;3186;54.062;9.962;2023-04-03T07:38:35;3.63;;;1.57;;
6306;SDS011;3186;54.062;9.962;2023-04-03T07:41:02;4.73;;;1.97;;
6306;SDS011;3186;54.062;9.962;2023-04-03T07:43:28;6.53;;;1.77;;
6306;SDS011;3186;54.062;9.962;2023-04-03T07:45:54;7.77;;;2.07;;
6306;SDS011;3186;54.062;9.962;2023-04-03T07:48:21;4.73;;;1.50;;
6306;SDS011;3186;54.062;9.962;2023-04-03T07:50:51;5.77;;;1.37;;
6306;SDS011;3186;54.062;9.962;2023-04-03T07:53:17;4.40;;;1.57;;
6306;SDS011;3186;54.062;9.962;2023-04-03T07:55:47;5.03;;;1.50;;
6306;SDS011;3186;54.062;9.962;2023-04-03T07:58:14;4.73;;;1.40;;
6306;SDS011;3186;54.062;9.962;2023-04-03T08:00:42;4.87;;;1.57;;
6306;SDS011;3186;54.062;9.962;2023-04-03T08:03:09;4.57;;;1.50;;
6306;SDS011;3186;54.062;9.962;2023-04-03T08:05:37;6.20;;;1.43;;
6306;SDS011;3186;54.062;9.962;2023-04-03T08:08:04;3.43;;;1.07;;
6306;SDS011;3186;54.062;9.962;2023-04-03T08:10:31;5.37;;;1.40;;
6306;SDS011;3186;54.062;9.962;2023-04-03T08:12:57;5.10;;;1.30;;
6306;SDS011;3186;54.062;9.962;2023-04-03T08:15:26;4.83;;;1.20;;
6306;SDS011;3186;54.062;9.962;2023-04-03T08:17:52;4.20;;;1.23;;
6306;SDS011;3186;54.062;9.962;2023-04-03T08:20:18;2.57;;;0.90;;
6306;SDS011;3186;54.062;9.962;2023-04-03T08:22:44;2.90;;;1.10;;
6306;SDS011;3186;54.062;9.962;2023-04-03T08:25:10;3.63;;;1.10;;
6306;SDS011;3186;54.062;9.962;2023-04-03T08:27:36;4.93;;;1.20;;
6306;SDS011;3186;54.062;9.962;2023-04-03T08:30:02;3.87;;;1.00;;
6306;SDS011;3186;54.062;9.962;2023-04-03T08:32:29;5.13;;;1.50;;
6306;SDS011;3186;54.062;9.962;2023-04-03T08:34:55;3.10;;;1.10;;
6306;SDS011;3186;54.062;9.962;2023-04-03T08:37:21;2.83;;;1.20;;
6306;SDS011;3186;54.062;9.962;2023-04-03T08:39:47;3.03;;;1.20;;
6306;SDS011;3186;54.062;9.962;2023-04-03T08:42:19;3.10;;;0.90;;
6306;SDS011;3186;54.062;9.962;2023-04-03T08:50:33;5.37;;;1.57;;
6306;SDS011;3186;54.062;9.962;2023-04-03T08:53:03;3.10;;;1.20;;
6306;SDS011;3186;54.062;9.962;2023-04-03T08:55:37;2.03;;;1.07;;
6306;SDS011;3186;54.062;9.962;2023-04-03T09:00:59;2.70;;;0.93;;
6306;SDS011;3186;54.062;9.962;2023-04-03T09:03:31;6.37;;;1.70;;
6306;SDS011;3186;54.062;9.962;2023-04-03T09:06:04;4.40;;;1.27;;
6306;SDS011;3186;54.062;9.962;2023-04-03T09:08:41;6.30;;;1.30;;
6306;SDS011;3186;54.062;9.962;2023-04-03T09:11:20;7.67;;;1.47;;
6306;SDS011;3186;54.062;9.962;2023-04-03T09:13:56;4.23;;;1.10;;
6306;SDS011;3186;54.062;9.962;2023-04-03T09:18:58;2.27;;;1.10;;
6306;SDS011;3186;54.062;9.962;2023-04-03T09:21:38;2.70;;;1.10;;
6306;SDS011;3186;54.062;9.962;2023-04-03T09:24:07;4.37;;;1.53;;
6306;SDS011;3186;54.062;9.962;2023-04-03T09:29:27;2.10;;;1.00;;
6306;SDS011;3186;54.062;9.962;2023-04-03T09:31:57;4.90;;;1.50;;
6306;SDS011;3186;54.062;9.962;2023-04-03T09:34:32;2.70;;;1.40;;
6306;SDS011;3186;54.062;9.962;2023-04-03T09:37:02;4.67;;;1.40;;
6306;SDS011;3186;54.062;9.962;2023-04-03T09:39:33;2.93;;;1.57;;
6306;SDS011;3186;54.062;9.962;2023-04-03T09:42:19;4.97;;;1.27;;
6306;SDS011;3186;54.062;9.962;2023-04-03T09:44:57;3.00;;;1.40;;
6306;SDS011;3186;54.062;9.962;2023-04-03T09:47:26;3.47;;;1.57;;
6306;SDS011;3186;54.062;9.962;2023-04-03T09:52:54;7.40;;;1.50;;
6306;SDS011;3186;54.062;9.962;2023-04-03T09:55:32;2.10;;;1.13;;
6306;SDS011;3186;54.062;9.962;2023-04-03T09:58:20;3.30;;;1.20;;
6306;SDS011;3186;54.062;9.962;2023-04-03T10:00:57;3.93;;;1.40;;
6306;SDS011;3186;54.062;9.962;2023-04-03T10:03:33;2.50;;;1.27;;
6306;SDS011;3186;54.062;9.962;2023-04-03T10:06:04;2.37;;;1.30;;
6306;SDS011;3186;54.062;9.962;2023-04-03T10:09:03;3.83;;;1.40;;
6306;SDS011;3186;54.062;9.962;2023-04-03T10:11:57;4.30;;;1.50;;
6306;SDS011;3186;54.062;9.962;2023-04-03T10:14:23;4.30;;;1.20;;
6306;SDS011;3186;54.062;9.962;2023-04-03T10:25:15;2.63;;;1.33;;
6306;SDS011;3186;54.062;9.962;2023-04-03T10:33:04;3.73;;;1.30;;
6306;SDS011;3186;54.062;9.962;2023-04-03T10:40:57;3.27;;;1.20;;
6306;SDS011;3186;54.062;9.962;2023-04-03T10:51:42;2.77;;;1.33;;
6306;SDS011;3186;54.062;9.962;2023-04-03T10:57:10;4.70;;;1.43;;
6306;SDS011;3186;54.062;9.962;2023-04-03T10:59:56;2.43;;;1.07;;
6306;SDS011;3186;54.062;9.962;2023-04-03T11:02:30;3.07;;;1.10;;
6306;SDS011;3186;54.062;9.962;2023-04-03T11:05:03;2.80;;;1.30;;
6306;SDS011;3186;54.062;9.962;2023-04-03T11:07:38;2.53;;;1.10;;
6306;SDS011;3186;54.062;9.962;2023-04-03T11:10:34;3.80;;;1.20;;
6306;SDS011;3186;54.062;9.962;2023-04-03T11:13:07;4.83;;;1.63;;
6306;SDS011;3186;54.062;9.962;2023-04-03T11:15:39;2.00;;;1.30;;
6306;SDS011;3186;54.062;9.962;2023-04-03T11:18:08;3.73;;;1.30;;
6306;SDS011;3186;54.062;9.962;2023-04-03T11:20:38;2.43;;;1.30;;
6306;SDS011;3186;54.062;9.962;2023-04-03T11:25:47;2.50;;;1.20;;
6306;SDS011;3186;54.062;9.962;2023-04-03T11:28:17;3.67;;;1.20;;
6306;SDS011;3186;54.062;9.962;2023-04-03T11:30:48;2.37;;;1.20;;
6306;SDS011;3186;54.062;9.962;2023-04-03T11:35:59;1.10;;;0.90;;
6306;SDS011;3186;54.062;9.962;2023-04-03T11:38:35;5.93;;;1.20;;
6306;SDS011;3186;54.062;9.962;2023-04-03T11:41:06;3.57;;;1.30;;
6306;SDS011;3186;54.062;9.962;2023-04-03T11:43:33;4.03;;;1.10;;
6306;SDS011;3186;54.062;9.962;2023-04-03T11:46:05;1.93;;;1.17;;
6306;SDS011;3186;54.062;9.962;2023-04-03T11:51:02;2.13;;;1.20;;
6306;SDS011;3186;54.062;9.962;2023-04-03T11:53:53;1.53;;;0.90;;
6306;SDS011;3186;54.062;9.962;2023-04-03T12:01:47;3.43;;;1.27;;
6306;SDS011;3186;54.062;9.962;2023-04-03T12:04:14;3.43;;;1.13;;
6306;SDS011;3186;54.062;9.962;2023-04-03T12:09:57;2.83;;;1.37;;
6306;SDS011;3186;54.062;9.962;2023-04-03T12:11:59;2.00;;;1.03;;
6306;SDS011;3186;54.062;9.962;2023-04-03T12:14:27;1.40;;;0.90;;
6306;SDS011;3186;54.062;9.962;2023-04-03T12:16:54;3.83;;;1.03;;
6306;SDS011;3186;54.062;9.962;2023-04-03T12:19:30;2.20;;;1.00;;
6306;SDS011;3186;54.062;9.962;2023-04-03T12:22:18;2.87;;;1.50;;
6306;SDS011;3186;54.062;9.962;2023-04-03T12:24:49;3.60;;;1.23;;
6306;SDS011;3186;54.062;9.962;2023-04-03T12:27:25;3.33;;;1.30;;
6306;SDS011;3186;54.062;9.962;2023-04-03T12:30:05;5.00;;;1.27;;
6306;SDS011;3186;54.062;9.962;2023-04-03T12:44:08;2.83;;;1.10;;
6306;SDS011;3186;54.062;9.962;2023-04-03T12:47:02;3.00;;;1.50;;
6306;SDS011;3186;54.062;9.962;2023-04-03T12:49:44;2.30;;;1.17;;
6306;SDS011;3186;54.062;9.962;2023-04-03T12:52:19;5.43;;;1.30;;
6306;SDS011;3186;54.062;9.962;2023-04-03T12:54:47;1.73;;;1.37;;
6306;SDS011;3186;54.062;9.962;2023-04-03T12:59:45;1.90;;;1.47;;
6306;SDS011;3186;54.062;9.962;2023-04-03T13:02:25;2.87;;;1.20;;
6306;SDS011;3186;54.062;9.962;2023-04-03T13:04:53;3.80;;;1.27;;
6306;SDS011;3186;54.062;9.962;2023-04-03T13:07:24;1.20;;;1.03;;
6306;SDS011;3186;54.062;9.962;2023-04-03T13:12:35;4.17;;;1.43;;
6306;SDS011;3186;54.062;9.962;2023-04-03T13:15:12;2.30;;;1.37;;
6306;SDS011;3186;54.062;9.962;2023-04-03T13:17:44;2.63;;;1.10;;
6306;SDS011;3186;54.062;9.962;2023-04-03T13:20:16;3.13;;;1.50;;
6306;SDS011;3186;54.062;9.962;2023-04-03T13:22:53;4.07;;;1.30;;
6306;SDS011;3186;54.062;9.962;2023-04-03T13:25:23;2.70;;;1.20;;
6306;SDS011;3186;54.062;9.962;2023-04-03T13:27:50;2.93;;;1.27;;
6306;SDS011;3186;54.062;9.962;2023-04-03T13:30:38;2.33;;;1.03;;
6306;SDS011;3186;54.062;9.962;2023-04-03T13:33:04;1.40;;;0.90;;
6306;SDS011;3186;54.062;9.962;2023-04-03T13:35:44;2.10;;;1.13;;
6306;SDS011;3186;54.062;9.962;2023-04-03T13:40:58;1.57;;;1.17;;
6306;SDS011;3186;54.062;9.962;2023-04-03T13:43:48;1.87;;;1.00;;
6306;SDS011;3186;54.062;9.962;2023-04-03T13:53:51;3.33;;;1.03;;
6306;SDS011;3186;54.062;9.962;2023-04-03T13:56:24;2.00;;;1.00;;
6306;SDS011;3186;54.062;9.962;2023-04-03T13:59:18;1.37;;;1.00;;
6306;SDS011;3186;54.062;9.962;2023-04-03T14:01:50;2.00;;;1.10;;
6306;SDS011;3186;54.062;9.962;2023-04-03T14:04:26;1.50;;;1.10;;
6306;SDS011;3186;54.062;9.962;2023-04-03T14:06:57;3.77;;;1.20;;
6306;SDS011;3186;54.062;9.962;2023-04-03T14:09:25;2.83;;;1.17;;
6306;SDS011;3186;54.062;9.962;2023-04-03T14:11:57;1.90;;;0.87;;
6306;SDS011;3186;54.062;9.962;2023-04-03T14:14:30;2.37;;;1.30;;
6306;SDS011;3186;54.062;9.962;2023-04-03T14:17:00;1.77;;;1.03;;
6306;SDS011;3186;54.062;9.962;2023-04-03T14:19:29;2.40;;;1.10;;
6306;SDS011;3186;54.062;9.962;2023-04-03T14:21:58;1.30;;;1.00;;
6306;SDS011;3186;54.062;9.962;2023-04-03T14:24:25;4.10;;;1.10;;
6306;SDS011;3186;54.062;9.962;2023-04-03T14:26:53;2.73;;;1.07;;
6306;SDS011;3186;54.062;9.962;2023-04-03T14:29:20;1.57;;;1.00;;
6306;SDS011;3186;54.062;9.962;2023-04-03T14:31:46;1.47;;;1.10;;
6306;SDS011;3186;54.062;9.962;2023-04-03T14:34:14;3.17;;;1.13;;
6306;SDS011;3186;54.062;9.962;2023-04-03T14:36:41;3.13;;;1.00;;
6306;SDS011;3186;54.062;9.962;2023-04-03T14:39:10;2.40;;;1.20;;
6306;SDS011;3186;54.062;9.962;2023-04-03T14:41:41;2.43;;;1.20;;
6306;SDS011;3186;54.062;9.962;2023-04-03T14:44:08;1.73;;;1.00;;
6306;SDS011;3186;54.062;9.962;2023-04-03T14:46:35;1.60;;;1.03;;
6306;SDS011;3186;54.062;9.962;2023-04-03T14:49:02;3.37;;;1.33;;
6306;SDS011;3186;54.062;9.962;2023-04-03T14:51:34;1.93;;;1.20;;
6306;SDS011;3186;54.062;9.962;2023-04-03T14:54:02;4.93;;;1.37;;
6306;SDS011;3186;54.062;9.962;2023-04-03T14:56:28;2.40;;;1.10;;
6306;SDS011;3186;54.062;9.962;2023-04-03T14:58:58;3.53;;;1.30;;
6306;SDS011;3186;54.062;9.962;2023-04-03T15:01:26;3.23;;;1.20;;
6306;SDS011;3186;54.062;9.962;2023-04-03T15:03:53;2.37;;;1.10;;
6306;SDS011;3186;54.062;9.962;2023-04-03T15:06:19;2.70;;;1.27;;
6306;SDS011;3186;54.062;9.962;2023-04-03T15:08:46;2.67;;;1.10;;
6306;SDS011;3186;54.062;9.962;2023-04-03T15:11:13;2.83;;;1.40;;
6306;SDS011;3186;54.062;9.962;2023-04-03T15:13:39;1.87;;;1.30;;
6306;SDS011;3186;54.062;9.962;2023-04-03T15:16:10;3.70;;;1.47;;
6306;SDS011;3186;54.062;9.962;2023-04-03T15:18:42;1.43;;;1.13;;
6306;SDS011;3186;54.062;9.962;2023-04-03T15:21:08;3.27;;;1.50;;
6306;SDS011;3186;54.062;9.962;2023-04-03T15:23:34;2.50;;;1.00;;
6306;SDS011;3186;54.062;9.962;2023-04-03T15:26:00;2.23;;;1.10;;
6306;SDS011;3186;54.062;9.962;2023-04-03T15:31:00;3.43;;;1.13;;
6306;SDS011;3186;54.062;9.962;2023-04-03T15:33:27;2.57;;;1.40;;
6306;SDS011;3186;54.062;9.962;2023-04-03T15:35:54;2.20;;;1.27;;
6306;SDS011;3186;54.062;9.962;2023-04-03T15:38:20;3.80;;;1.60;;
6306;SDS011;3186;54.062;9.962;2023-04-03T15:40:46;2.20;;;1.30;;
6306;SDS011;3186;54.062;9.962;2023-04-03T15:43:14;4.07;;;1.60;;
6306;SDS011;3186;54.062;9.962;2023-04-03T15:45:40;3.67;;;1.20;;
6306;SDS011;3186;54.062;9.962;2023-04-03T15:48:07;3.17;;;1.50;;
6306;SDS011;3186;54.062;9.962;2023-04-03T15:50:34;2.33;;;1.43;;
6306;SDS011;3186;54.062;9.962;2023-04-03T15:53:00;2.60;;;1.30;;
6306;SDS011;3186;54.062;9.962;2023-04-03T15:55:29;5.40;;;1.40;;
6306;SDS011;3186;54.062;9.962;2023-04-03T15:58:00;2.83;;;1.50;;
6306;SDS011;3186;54.062;9.962;2023-04-03T16:00:26;3.40;;;1.20;;
6306;SDS011;3186;54.062;9.962;2023-04-03T16:02:54;3.77;;;1.43;;
6306;SDS011;3186;54.062;9.962;2023-04-03T16:05:24;4.17;;;1.27;;
6306;SDS011;3186;54.062;9.962;2023-04-03T16:07:50;3.73;;;1.30;;
6306;SDS011;3186;54.062;9.962;2023-04-03T16:10:16;4.90;;;1.50;;
6306;SDS011;3186;54.062;9.962;2023-04-03T16:12:43;1.70;;;1.07;;
6306;SDS011;3186;54.062;9.962;2023-04-03T16:15:09;2.13;;;1.30;;
6306;SDS011;3186;54.062;9.962;2023-04-03T16:17:35;2.97;;;1.40;;
6306;SDS011;3186;54.062;9.962;2023-04-03T16:20:03;2.27;;;0.97;;
6306;SDS011;3186;54.062;9.962;2023-04-03T16:22:30;2.00;;;1.07;;
6306;SDS011;3186;54.062;9.962;2023-04-03T16:24:56;4.17;;;1.30;;
6306;SDS011;3186;54.062;9.962;2023-04-03T16:27:22;2.10;;;1.20;;
6306;SDS011;3186;54.062;9.962;2023-04-03T16:29:53;5.87;;;1.63;;
6306;SDS011;3186;54.062;9.962;2023-04-03T16:32:20;3.00;;;1.00;;
6306;SDS011;3186;54.062;9.962;2023-04-03T16:34:47;2.13;;;1.50;;
6306;SDS011;3186;54.062;9.962;2023-04-03T16:37:13;1.80;;;1.30;;
6306;SDS011;3186;54.062;9.962;2023-04-03T16:39:40;3.00;;;1.23;;
6306;SDS011;3186;54.062;9.962;2023-04-03T16:42:06;5.23;;;1.70;;
6306;SDS011;3186;54.062;9.962;2023-04-03T16:44:34;2.47;;;1.40;;
6306;SDS011;3186;54.062;9.962;2023-04-03T16:47:00;3.57;;;1.60;;
6306;SDS011;3186;54.062;9.962;2023-04-03T16:49:26;5.67;;;1.43;;
6306;SDS011;3186;54.062;9.962;2023-04-03T16:51:57;3.47;;;1.53;;
6306;SDS011;3186;54.062;9.962;2023-04-03T16:54:26;2.50;;;1.50;;
6306;SDS011;3186;54.062;9.962;2023-04-03T16:56:52;3.07;;;1.73;;
6306;SDS011;3186;54.062;9.962;2023-04-03T16:59:18;6.17;;;1.90;;
6306;SDS011;3186;54.062;9.962;2023-04-03T17:01:44;3.20;;;1.53;;
6306;SDS011;3186;54.062;9.962;2023-04-03T17:04:10;3.23;;;1.63;;